sensor_id;sensor_type;location;lat;lon;timestamp;temperature;humidity
18252;DHT22;26917;52.328;20.878;2022-10-03T00:01:40;9.20;99.90
18252;DHT22;26917;52.328;20.878;2022-10-03T00:04:25;9.20;99.90
18252;DHT22;26917;52.328;20.878;2022-10-03T00:07:09;9.20;99.90
18252;DHT22;26917;52.328;20.878;2022-10-03T00:09:53;9.20;99.90
18252;DHT22;26917;52.328;20.878;2022-10-03T00:12:38;9.30;99.90
18252;DHT22;26917;52.328;20.878;2022-10-03T00:15:17;9.20;99.90
18252;DHT22;26917;52.328;20.878;2022-10-03T00:17:57;9.10;99.90
18252;DHT22;26917;52.328;20.878;2022-10-03T00:20:45;9.10;99.90
18252;DHT22;26917;52.328;20.878;2022-10-03T00:23:21;9.20;99.90
18252;DHT22;26917;52.328;20.878;2022-10-03T00:25:57;9.20;99.90
18252;DHT22;26917;52.328;20.878;2022-10-03T00:28:54;9.20;99.90
18252;DHT22;26917;52.328;20.878;2022-10-03T00:31:38;9.20;99.90
18252;DHT22;26917;52.328;20.878;2022-10-03T00:34:15;9.20;99.90
18252;DHT22;26917;52.328;20.878;2022-10-03T00:36:51;9.20;99.90
18252;DHT22;26917;52.328;20.878;2022-10-03T00:39:34;9.20;99.90
18252;DHT22;26917;52.328;20.878;2022-10-03T00:42:33;9.10;99.90
18252;DHT22;26917;52.328;20.878;2022-10-03T00:45:43;9.10;99.90
18252;DHT22;26917;52.328;20.878;2022-10-03T00:48:42;9.10;99.90
18252;DHT22;26917;52.328;20.878;2022-10-03T00:51:28;9.10;99.90
18252;DHT22;26917;52.328;20.878;2022-10-03T00:57:22;9.10;99.90
18252;DHT22;26917;52.328;20.878;2022-10-03T01:00:10;9.10;99.90
18252;DHT22;26917;52.328;20.878;2022-10-03T01:05:42;9.00;99.90
18252;DHT22;26917;52.328;20.878;2022-10-03T01:08:35;9.10;99.90
18252;DHT22;26917;52.328;20.878;2022-10-03T01:11:12;9.10;99.90
18252;DHT22;26917;52.328;20.878;2022-10-03T01:13:55;9.10;99.90
18252;DHT22;26917;52.328;20.878;2022-10-03T01:16:32;9.10;99.90
18252;DHT22;26917;52.328;20.878;2022-10-03T01:19:24;9.10;99.90
18252;DHT22;26917;52.328;20.878;2022-10-03T01:22:05;9.10;99.90
18252;DHT22;26917;52.328;20.878;2022-10-03T01:24:49;9.10;99.90
18252;DHT22;26917;52.328;20.878;2022-10-03T01:27:25;9.10;99.90
18252;DHT22;26917;52.328;20.878;2022-10-03T01:30:00;9.20;99.90
18252;DHT22;26917;52.328;20.878;2022-10-03T01:32:51;9.10;99.90
18252;DHT22;26917;52.328;20.878;2022-10-03T01:35:35;9.10;99.90
18252;DHT22;26917;52.328;20.878;2022-10-03T01:38:14;9.20;99.90
18252;DHT22;26917;52.328;20.878;2022-10-03T01:40:53;9.10;99.90
18252;DHT22;26917;52.328;20.878;2022-10-03T01:43:35;9.20;99.90
18252;DHT22;26917;52.328;20.878;2022-10-03T01:46:10;9.20;99.90
18252;DHT22;26917;52.328;20.878;2022-10-03T01:48:50;9.10;99.90
18252;DHT22;26917;52.328;20.878;2022-10-03T01:51:25;9.20;99.90
18252;DHT22;26917;52.328;20.878;2022-10-03T01:54:05;9.20;99.90
18252;DHT22;26917;52.328;20.878;2022-10-03T01:56:44;9.20;99.90
18252;DHT22;26917;52.328;20.878;2022-10-03T01:59:18;9.20;99.90
18252;DHT22;26917;52.328;20.878;2022-10-03T02:01:54;9.20;99.90
18252;DHT22;26917;52.328;20.878;2022-10-03T02:04:38;9.20;99.90
18252;DHT22;26917;52.328;20.878;2022-10-03T02:07:17;9.20;99.90
18252;DHT22;26917;52.328;20.878;2022-10-03T02:09:59;9.20;99.90
18252;DHT22;26917;52.328;20.878;2022-10-03T02:12:32;9.20;99.90
18252;DHT22;26917;52.328;20.878;2022-10-03T02:15:10;9.20;99.90
18252;DHT22;26917;52.328;20.878;2022-10-03T02:17:47;9.20;99.90
18252;DHT22;26917;52.328;20.878;2022-10-03T02:20:23;9.30;99.90
18252;DHT22;26917;52.328;20.878;2022-10-03T02:22:53;9.30;99.90
18252;DHT22;26917;52.328;20.878;2022-10-03T02:25:34;9.30;99.90
18252;DHT22;26917;52.328;20.878;2022-10-03T02:28:26;9.30;99.90
18252;DHT22;26917;52.328;20.878;2022-10-03T02:31:10;9.30;99.90
18252;DHT22;26917;52.328;20.878;2022-10-03T02:34:01;9.30;99.90
18252;DHT22;26917;52.328;20.878;2022-10-03T02:40:16;9.40;99.90
18252;DHT22;26917;52.328;20.878;2022-10-03T02:43:27;9.40;99.90
18252;DHT22;26917;52.328;20.878;2022-10-03T02:46:25;9.40;99.90
18252;DHT22;26917;52.328;20.878;2022-10-03T02:52:36;9.40;99.90
18252;DHT22;26917;52.328;20.878;2022-10-03T02:55:44;9.40;99.90
18252;DHT22;26917;52.328;20.878;2022-10-03T03:01:59;9.40;99.90
18252;DHT22;26917;52.328;20.878;2022-10-03T03:05:02;9.40;99.90
18252;DHT22;26917;52.328;20.878;2022-10-03T03:07:43;9.40;99.90
18252;DHT22;26917;52.328;20.878;2022-10-03T03:10:51;9.50;99.90
18252;DHT22;26917;52.328;20.878;2022-10-03T03:16:52;9.40;99.90
18252;DHT22;26917;52.328;20.878;2022-10-03T03:19:48;9.50;99.90
18252;DHT22;26917;52.328;20.878;2022-10-03T03:22:36;9.40;99.90
18252;DHT22;26917;52.328;20.878;2022-10-03T03:25:29;9.50;99.90
18252;DHT22;26917;52.328;20.878;2022-10-03T03:28:16;9.50;99.90
18252;DHT22;26917;52.328;20.878;2022-10-03T03:30:54;9.50;99.90
18252;DHT22;26917;52.328;20.878;2022-10-03T03:33:32;9.50;99.90
18252;DHT22;26917;52.328;20.878;2022-10-03T03:36:13;9.50;99.90
18252;DHT22;26917;52.328;20.878;2022-10-03T03:38:57;9.60;99.90
18252;DHT22;26917;52.328;20.878;2022-10-03T03:41:45;9.50;99.90
18252;DHT22;26917;52.328;20.878;2022-10-03T03:44:36;9.30;99.90
18252;DHT22;26917;52.328;20.878;2022-10-03T03:47:34;9.50;99.90
18252;DHT22;26917;52.328;20.878;2022-10-03T03:50:27;9.50;99.90
18252;DHT22;26917;52.328;20.878;2022-10-03T03:53:21;9.50;99.90
18252;DHT22;26917;52.328;20.878;2022-10-03T03:56:17;9.60;99.90
18252;DHT22;26917;52.328;20.878;2022-10-03T03:58:53;9.60;99.90
18252;DHT22;26917;52.328;20.878;2022-10-03T04:01:40;9.60;99.90
18252;DHT22;26917;52.328;20.878;2022-10-03T04:04:20;9.60;99.90
18252;DHT22;26917;52.328;20.878;2022-10-03T04:07:04;9.60;99.90
18252;DHT22;26917;52.328;20.878;2022-10-03T04:09:57;9.70;99.90
18252;DHT22;26917;52.328;20.878;2022-10-03T04:12:56;9.60;99.90
18252;DHT22;26917;52.328;20.878;2022-10-03T04:15:45;9.70;99.90
18252;DHT22;26917;52.328;20.878;2022-10-03T04:18:31;9.70;99.90
18252;DHT22;26917;52.328;20.878;2022-10-03T04:21:50;9.70;99.90
18252;DHT22;26917;52.328;20.878;2022-10-03T04:24:32;9.70;99.90
18252;DHT22;26917;52.328;20.878;2022-10-03T04:27:16;9.70;99.90
18252;DHT22;26917;52.328;20.878;2022-10-03T04:29:58;9.60;99.90
18252;DHT22;26917;52.328;20.878;2022-10-03T04:32:40;9.60;99.90
18252;DHT22;26917;52.328;20.878;2022-10-03T04:35:41;9.60;99.90
18252;DHT22;26917;52.328;20.878;2022-10-03T04:38:19;9.60;99.90
18252;DHT22;26917;52.328;20.878;2022-10-03T04:40:56;9.60;99.90
18252;DHT22;26917;52.328;20.878;2022-10-03T04:43:34;9.60;99.90
18252;DHT22;26917;52.328;20.878;2022-10-03T04:46:22;9.60;99.90
18252;DHT22;26917;52.328;20.878;2022-10-03T04:49:02;9.60;99.90
18252;DHT22;26917;52.328;20.878;2022-10-03T04:51:48;9.60;99.90
18252;DHT22;26917;52.328;20.878;2022-10-03T04:54:28;9.60;99.90
18252;DHT22;26917;52.328;20.878;2022-10-03T04:57:04;9.60;99.90
18252;DHT22;26917;52.328;20.878;2022-10-03T04:59:43;9.50;99.90
18252;DHT22;26917;52.328;20.878;2022-10-03T05:02:27;9.70;99.90
18252;DHT22;26917;52.328;20.878;2022-10-03T05:05:26;9.70;99.90
18252;DHT22;26917;52.328;20.878;2022-10-03T05:08:11;9.70;99.90
18252;DHT22;26917;52.328;20.878;2022-10-03T05:11:03;9.70;99.90
18252;DHT22;26917;52.328;20.878;2022-10-03T05:13:55;9.70;99.90
18252;DHT22;26917;52.328;20.878;2022-10-03T05:16:30;9.80;99.90
18252;DHT22;26917;52.328;20.878;2022-10-03T05:21:57;9.80;99.90
18252;DHT22;26917;52.328;20.878;2022-10-03T05:24:35;9.70;99.90
18252;DHT22;26917;52.328;20.878;2022-10-03T05:27:13;9.80;99.90
18252;DHT22;26917;52.328;20.878;2022-10-03T05:29:52;9.90;99.90
18252;DHT22;26917;52.328;20.878;2022-10-03T05:32:29;9.90;99.90
18252;DHT22;26917;52.328;20.878;2022-10-03T05:35:18;9.90;99.90
18252;DHT22;26917;52.328;20.878;2022-10-03T05:38:14;9.90;99.90
18252;DHT22;26917;52.328;20.878;2022-10-03T05:40:50;9.90;99.90
18252;DHT22;26917;52.328;20.878;2022-10-03T05:43:42;9.90;99.90
18252;DHT22;26917;52.328;20.878;2022-10-03T05:46:20;10.00;99.90
18252;DHT22;26917;52.328;20.878;2022-10-03T05:48:54;10.00;99.90
18252;DHT22;26917;52.328;20.878;2022-10-03T05:51:44;10.00;99.90
18252;DHT22;26917;52.328;20.878;2022-10-03T05:54:44;10.00;99.90
18252;DHT22;26917;52.328;20.878;2022-10-03T06:00:18;10.10;99.90
18252;DHT22;26917;52.328;20.878;2022-10-03T06:03:22;10.10;99.90
18252;DHT22;26917;52.328;20.878;2022-10-03T06:06:12;10.20;99.90
18252;DHT22;26917;52.328;20.878;2022-10-03T06:09:28;10.20;99.90
18252;DHT22;26917;52.328;20.878;2022-10-03T06:12:06;10.20;99.90
18252;DHT22;26917;52.328;20.878;2022-10-03T06:15:00;10.30;99.90
18252;DHT22;26917;52.328;20.878;2022-10-03T06:17:48;10.30;99.90
18252;DHT22;26917;52.328;20.878;2022-10-03T06:20:54;10.30;99.90
18252;DHT22;26917;52.328;20.878;2022-10-03T06:23:40;10.30;99.90
18252;DHT22;26917;52.328;20.878;2022-10-03T06:29:46;10.30;99.90
18252;DHT22;26917;52.328;20.878;2022-10-03T06:32:38;10.30;99.90
18252;DHT22;26917;52.328;20.878;2022-10-03T06:42:29;10.20;99.90
18252;DHT22;26917;52.328;20.878;2022-10-03T06:48:33;10.20;99.90
18252;DHT22;26917;52.328;20.878;2022-10-03T06:51:28;10.30;99.90
18252;DHT22;26917;52.328;20.878;2022-10-03T06:54:12;10.30;99.90
18252;DHT22;26917;52.328;20.878;2022-10-03T06:57:02;10.30;99.90
18252;DHT22;26917;52.328;20.878;2022-10-03T07:00:02;10.30;99.90
18252;DHT22;26917;52.328;20.878;2022-10-03T07:06:18;10.40;99.90
18252;DHT22;26917;52.328;20.878;2022-10-03T07:15:48;10.60;99.90
18252;DHT22;26917;52.328;20.878;2022-10-03T07:19:17;10.60;99.90
18252;DHT22;26917;52.328;20.878;2022-10-03T07:22:15;10.60;99.90
18252;DHT22;26917;52.328;20.878;2022-10-03T07:25:24;10.60;99.90
18252;DHT22;26917;52.328;20.878;2022-10-03T07:28:11;10.70;99.90
18252;DHT22;26917;52.328;20.878;2022-10-03T07:30:58;10.70;99.90
18252;DHT22;26917;52.328;20.878;2022-10-03T07:34:05;10.70;99.90
18252;DHT22;26917;52.328;20.878;2022-10-03T07:40:24;10.90;99.90
18252;DHT22;26917;52.328;20.878;2022-10-03T07:52:41;11.00;99.90
18252;DHT22;26917;52.328;20.878;2022-10-03T07:55:28;11.00;99.90
18252;DHT22;26917;52.328;20.878;2022-10-03T07:58:20;11.10;99.90
18252;DHT22;26917;52.328;20.878;2022-10-03T08:04:24;11.10;99.90
18252;DHT22;26917;52.328;20.878;2022-10-03T08:07:12;11.10;99.90
18252;DHT22;26917;52.328;20.878;2022-10-03T08:10:08;11.10;99.90
18252;DHT22;26917;52.328;20.878;2022-10-03T08:13:01;11.20;99.90
18252;DHT22;26917;52.328;20.878;2022-10-03T08:15:49;11.20;99.90
18252;DHT22;26917;52.328;20.878;2022-10-03T08:21:52;11.30;99.90
18252;DHT22;26917;52.328;20.878;2022-10-03T08:24:49;11.30;99.90
18252;DHT22;26917;52.328;20.878;2022-10-03T08:27:44;11.40;99.90
18252;DHT22;26917;52.328;20.878;2022-10-03T08:30:32;11.40;99.90
18252;DHT22;26917;52.328;20.878;2022-10-03T08:33:32;11.40;99.90
18252;DHT22;26917;52.328;20.878;2022-10-03T08:39:30;11.40;99.90
18252;DHT22;26917;52.328;20.878;2022-10-03T08:45:50;11.40;99.90
18252;DHT22;26917;52.328;20.878;2022-10-03T08:48:57;11.40;99.90
18252;DHT22;26917;52.328;20.878;2022-10-03T08:51:59;11.30;99.90
18252;DHT22;26917;52.328;20.878;2022-10-03T08:58:16;11.40;99.90
18252;DHT22;26917;52.328;20.878;2022-10-03T09:01:10;11.40;99.90
18252;DHT22;26917;52.328;20.878;2022-10-03T09:07:17;11.60;99.90
18252;DHT22;26917;52.328;20.878;2022-10-03T09:10:25;11.70;99.90
18252;DHT22;26917;52.328;20.878;2022-10-03T09:22:59;11.50;99.90
18252;DHT22;26917;52.328;20.878;2022-10-03T09:25:55;11.50;99.90
18252;DHT22;26917;52.328;20.878;2022-10-03T09:28:48;11.40;99.90
18252;DHT22;26917;52.328;20.878;2022-10-03T09:31:37;11.40;99.90
18252;DHT22;26917;52.328;20.878;2022-10-03T09:37:33;11.40;99.90
18252;DHT22;26917;52.328;20.878;2022-10-03T09:40:38;11.50;99.90
18252;DHT22;26917;52.328;20.878;2022-10-03T09:43:31;11.50;99.90
18252;DHT22;26917;52.328;20.878;2022-10-03T09:46:20;11.60;99.90
18252;DHT22;26917;52.328;20.878;2022-10-03T09:49:36;11.70;99.90
18252;DHT22;26917;52.328;20.878;2022-10-03T09:52:21;11.80;99.90
18252;DHT22;26917;52.328;20.878;2022-10-03T10:01:11;12.00;99.90
18252;DHT22;26917;52.328;20.878;2022-10-03T10:10:14;12.20;99.90
18252;DHT22;26917;52.328;20.878;2022-10-03T10:13:14;12.20;99.90
18252;DHT22;26917;52.328;20.878;2022-10-03T10:22:03;11.80;99.90
18252;DHT22;26917;52.328;20.878;2022-10-03T10:31:28;11.60;99.90
18252;DHT22;26917;52.328;20.878;2022-10-03T10:34:33;11.60;99.90
18252;DHT22;26917;52.328;20.878;2022-10-03T10:40:42;11.40;99.90
18252;DHT22;26917;52.328;20.878;2022-10-03T10:52:49;11.40;99.90
18252;DHT22;26917;52.328;20.878;2022-10-03T10:56:04;11.40;99.90
18252;DHT22;26917;52.328;20.878;2022-10-03T11:05:35;11.40;99.90
18252;DHT22;26917;52.328;20.878;2022-10-03T11:15:07;11.80;99.90
18252;DHT22;26917;52.328;20.878;2022-10-03T11:21:16;12.10;99.90
18252;DHT22;26917;52.328;20.878;2022-10-03T11:24:33;11.90;99.90
18252;DHT22;26917;52.328;20.878;2022-10-03T11:34:04;11.70;99.90
18252;DHT22;26917;52.328;20.878;2022-10-03T11:37:07;11.80;99.90
18252;DHT22;26917;52.328;20.878;2022-10-03T11:39:43;11.80;99.90
18252;DHT22;26917;52.328;20.878;2022-10-03T11:42:28;11.90;99.90
18252;DHT22;26917;52.328;20.878;2022-10-03T11:45:14;11.90;99.90
18252;DHT22;26917;52.328;20.878;2022-10-03T11:47:56;11.90;99.90
18252;DHT22;26917;52.328;20.878;2022-10-03T11:50:37;12.00;99.90
18252;DHT22;26917;52.328;20.878;2022-10-03T11:53:31;12.00;99.90
18252;DHT22;26917;52.328;20.878;2022-10-03T11:56:31;12.00;99.90
18252;DHT22;26917;52.328;20.878;2022-10-03T11:59:45;12.00;99.90
18252;DHT22;26917;52.328;20.878;2022-10-03T12:02:44;12.20;99.90
18252;DHT22;26917;52.328;20.878;2022-10-03T12:05:34;12.20;99.90
18252;DHT22;26917;52.328;20.878;2022-10-03T12:08:17;12.30;99.90
18252;DHT22;26917;52.328;20.878;2022-10-03T12:11:12;12.40;99.90
18252;DHT22;26917;52.328;20.878;2022-10-03T12:14:17;12.50;99.90
18252;DHT22;26917;52.328;20.878;2022-10-03T12:17:01;12.50;99.90
18252;DHT22;26917;52.328;20.878;2022-10-03T12:19:37;12.50;99.90
18252;DHT22;26917;52.328;20.878;2022-10-03T12:22:25;12.60;99.90
18252;DHT22;26917;52.328;20.878;2022-10-03T12:25:01;12.60;99.90
18252;DHT22;26917;52.328;20.878;2022-10-03T12:27:40;12.80;99.90
18252;DHT22;26917;52.328;20.878;2022-10-03T12:30:14;12.90;99.90
18252;DHT22;26917;52.328;20.878;2022-10-03T12:32:55;12.90;99.90
18252;DHT22;26917;52.328;20.878;2022-10-03T12:35:39;13.00;99.90
18252;DHT22;26917;52.328;20.878;2022-10-03T12:38:35;13.00;99.90
18252;DHT22;26917;52.328;20.878;2022-10-03T12:41:21;13.00;99.90
18252;DHT22;26917;52.328;20.878;2022-10-03T12:44:05;13.20;99.90
18252;DHT22;26917;52.328;20.878;2022-10-03T12:46:44;13.30;99.90
18252;DHT22;26917;52.328;20.878;2022-10-03T12:49:25;13.40;99.90
18252;DHT22;26917;52.328;20.878;2022-10-03T12:51:59;13.40;99.90
18252;DHT22;26917;52.328;20.878;2022-10-03T12:54:50;13.30;99.90
18252;DHT22;26917;52.328;20.878;2022-10-03T12:58:00;13.30;99.90
18252;DHT22;26917;52.328;20.878;2022-10-03T13:00:34;13.30;99.90
18252;DHT22;26917;52.328;20.878;2022-10-03T13:03:18;13.40;99.90
18252;DHT22;26917;52.328;20.878;2022-10-03T13:06:11;13.50;99.90
18252;DHT22;26917;52.328;20.878;2022-10-03T13:09:00;13.50;99.90
18252;DHT22;26917;52.328;20.878;2022-10-03T13:11:45;13.40;99.90
18252;DHT22;26917;52.328;20.878;2022-10-03T13:14:42;13.50;99.90
18252;DHT22;26917;52.328;20.878;2022-10-03T13:17:30;13.50;99.90
18252;DHT22;26917;52.328;20.878;2022-10-03T13:20:20;13.40;99.90
18252;DHT22;26917;52.328;20.878;2022-10-03T13:23:05;13.40;98.50
18252;DHT22;26917;52.328;20.878;2022-10-03T13:25:45;13.40;99.30
18252;DHT22;26917;52.328;20.878;2022-10-03T13:28:39;13.30;99.90
18252;DHT22;26917;52.328;20.878;2022-10-03T13:31:24;13.20;99.40
18252;DHT22;26917;52.328;20.878;2022-10-03T13:34:18;13.00;99.10
18252;DHT22;26917;52.328;20.878;2022-10-03T13:36:52;12.90;98.70
18252;DHT22;26917;52.328;20.878;2022-10-03T13:39:45;12.70;99.30
18252;DHT22;26917;52.328;20.878;2022-10-03T13:42:19;12.60;98.90
18252;DHT22;26917;52.328;20.878;2022-10-03T13:44:54;12.50;99.60
18252;DHT22;26917;52.328;20.878;2022-10-03T13:47:42;12.40;98.40
18252;DHT22;26917;52.328;20.878;2022-10-03T13:50:19;12.40;99.90
18252;DHT22;26917;52.328;20.878;2022-10-03T13:52:58;12.50;99.50
18252;DHT22;26917;52.328;20.878;2022-10-03T13:55:38;12.60;99.70
18252;DHT22;26917;52.328;20.878;2022-10-03T13:58:27;12.60;98.50
18252;DHT22;26917;52.328;20.878;2022-10-03T14:01:23;12.60;99.20
18252;DHT22;26917;52.328;20.878;2022-10-03T14:04:14;12.60;99.60
18252;DHT22;26917;52.328;20.878;2022-10-03T14:06:56;12.60;99.90
18252;DHT22;26917;52.328;20.878;2022-10-03T14:09:38;12.60;98.20
18252;DHT22;26917;52.328;20.878;2022-10-03T14:12:16;12.60;97.60
18252;DHT22;26917;52.328;20.878;2022-10-03T14:15:24;12.60;98.70
18252;DHT22;26917;52.328;20.878;2022-10-03T14:18:03;12.50;99.40
18252;DHT22;26917;52.328;20.878;2022-10-03T14:20:38;12.50;98.60
18252;DHT22;26917;52.328;20.878;2022-10-03T14:23:27;12.40;98.20
18252;DHT22;26917;52.328;20.878;2022-10-03T14:26:20;12.40;97.80
18252;DHT22;26917;52.328;20.878;2022-10-03T14:29:04;12.40;97.80
18252;DHT22;26917;52.328;20.878;2022-10-03T14:31:44;12.30;99.30
18252;DHT22;26917;52.328;20.878;2022-10-03T14:34:32;12.30;96.10
18252;DHT22;26917;52.328;20.878;2022-10-03T14:37:23;12.30;98.70
18252;DHT22;26917;52.328;20.878;2022-10-03T14:40:10;12.20;98.40
18252;DHT22;26917;52.328;20.878;2022-10-03T14:43:09;12.20;99.80
18252;DHT22;26917;52.328;20.878;2022-10-03T14:45:49;12.10;97.40
18252;DHT22;26917;52.328;20.878;2022-10-03T14:48:34;12.10;97.80
18252;DHT22;26917;52.328;20.878;2022-10-03T14:51:12;12.10;98.80
18252;DHT22;26917;52.328;20.878;2022-10-03T14:54:01;12.00;98.80
18252;DHT22;26917;52.328;20.878;2022-10-03T14:57:00;11.90;99.20
18252;DHT22;26917;52.328;20.878;2022-10-03T14:59:34;11.90;99.40
18252;DHT22;26917;52.328;20.878;2022-10-03T15:02:27;11.90;98.00
18252;DHT22;26917;52.328;20.878;2022-10-03T15:05:02;11.90;99.90
18252;DHT22;26917;52.328;20.878;2022-10-03T15:07:38;11.80;99.90
18252;DHT22;26917;52.328;20.878;2022-10-03T15:10:17;11.80;99.30
18252;DHT22;26917;52.328;20.878;2022-10-03T15:12:49;11.80;99.50
18252;DHT22;26917;52.328;20.878;2022-10-03T15:15:24;11.70;99.90
18252;DHT22;26917;52.328;20.878;2022-10-03T15:18:03;11.70;99.90
18252;DHT22;26917;52.328;20.878;2022-10-03T15:20:55;11.50;99.90
18252;DHT22;26917;52.328;20.878;2022-10-03T15:23:29;11.50;99.90
18252;DHT22;26917;52.328;20.878;2022-10-03T15:26:00;11.50;99.90
18252;DHT22;26917;52.328;20.878;2022-10-03T15:28:57;11.40;99.90
18252;DHT22;26917;52.328;20.878;2022-10-03T15:31:43;11.40;99.90
18252;DHT22;26917;52.328;20.878;2022-10-03T15:34:19;11.40;99.90
18252;DHT22;26917;52.328;20.878;2022-10-03T15:36:53;11.40;99.90
18252;DHT22;26917;52.328;20.878;2022-10-03T15:39:51;11.40;99.90
18252;DHT22;26917;52.328;20.878;2022-10-03T15:42:32;11.30;99.90
18252;DHT22;26917;52.328;20.878;2022-10-03T15:45:18;11.20;99.90
18252;DHT22;26917;52.328;20.878;2022-10-03T15:47:49;11.20;99.90
18252;DHT22;26917;52.328;20.878;2022-10-03T15:50:29;11.20;99.90
18252;DHT22;26917;52.328;20.878;2022-10-03T15:53:06;11.10;99.90
18252;DHT22;26917;52.328;20.878;2022-10-03T15:56:06;11.10;99.90
18252;DHT22;26917;52.328;20.878;2022-10-03T15:58:36;11.00;99.90
18252;DHT22;26917;52.328;20.878;2022-10-03T16:01:14;11.00;99.90
18252;DHT22;26917;52.328;20.878;2022-10-03T16:03:52;10.90;99.90
18252;DHT22;26917;52.328;20.878;2022-10-03T16:06:24;10.90;99.90
18252;DHT22;26917;52.328;20.878;2022-10-03T16:09:04;10.80;99.90
18252;DHT22;26917;52.328;20.878;2022-10-03T16:11:50;10.80;99.90
18252;DHT22;26917;52.328;20.878;2022-10-03T16:14:22;10.80;99.90
18252;DHT22;26917;52.328;20.878;2022-10-03T16:16:56;10.70;99.90
18252;DHT22;26917;52.328;20.878;2022-10-03T16:19:32;10.60;99.90
18252;DHT22;26917;52.328;20.878;2022-10-03T16:22:14;10.60;99.90
18252;DHT22;26917;52.328;20.878;2022-10-03T16:25:00;10.50;99.90
18252;DHT22;26917;52.328;20.878;2022-10-03T16:27:43;10.40;99.90
18252;DHT22;26917;52.328;20.878;2022-10-03T16:30:25;10.40;99.90
18252;DHT22;26917;52.328;20.878;2022-10-03T16:33:02;10.40;99.90
18252;DHT22;26917;52.328;20.878;2022-10-03T16:35:35;10.30;99.90
18252;DHT22;26917;52.328;20.878;2022-10-03T16:38:17;10.30;99.90
18252;DHT22;26917;52.328;20.878;2022-10-03T16:40:52;10.20;99.90
18252;DHT22;26917;52.328;20.878;2022-10-03T16:43:25;10.30;99.90
18252;DHT22;26917;52.328;20.878;2022-10-03T16:45:58;10.20;99.90
18252;DHT22;26917;52.328;20.878;2022-10-03T16:48:28;10.10;99.90
18252;DHT22;26917;52.328;20.878;2022-10-03T16:51:18;10.10;99.90
18252;DHT22;26917;52.328;20.878;2022-10-03T16:53:50;10.10;99.90
18252;DHT22;26917;52.328;20.878;2022-10-03T16:56:22;10.10;99.90
18252;DHT22;26917;52.328;20.878;2022-10-03T16:58:54;10.10;99.90
18252;DHT22;26917;52.328;20.878;2022-10-03T17:01:30;10.10;99.90
18252;DHT22;26917;52.328;20.878;2022-10-03T17:04:11;10.10;99.90
18252;DHT22;26917;52.328;20.878;2022-10-03T17:06:46;10.00;99.90
18252;DHT22;26917;52.328;20.878;2022-10-03T17:09:24;10.00;99.90
18252;DHT22;26917;52.328;20.878;2022-10-03T17:11:56;10.00;99.90
18252;DHT22;26917;52.328;20.878;2022-10-03T17:14:33;10.00;99.90
18252;DHT22;26917;52.328;20.878;2022-10-03T17:17:11;10.00;99.90
18252;DHT22;26917;52.328;20.878;2022-10-03T17:19:47;9.90;99.90
18252;DHT22;26917;52.328;20.878;2022-10-03T17:22:19;9.90;99.90
18252;DHT22;26917;52.328;20.878;2022-10-03T17:24:52;9.80;99.90
18252;DHT22;26917;52.328;20.878;2022-10-03T17:27:24;9.70;99.90
18252;DHT22;26917;52.328;20.878;2022-10-03T17:30:00;9.70;99.90
18252;DHT22;26917;52.328;20.878;2022-10-03T17:32:34;9.60;99.90
18252;DHT22;26917;52.328;20.878;2022-10-03T17:35:10;9.60;99.90
18252;DHT22;26917;52.328;20.878;2022-10-03T17:38:10;9.50;99.90
18252;DHT22;26917;52.328;20.878;2022-10-03T17:41:12;9.50;99.90
18252;DHT22;26917;52.328;20.878;2022-10-03T17:43:48;9.50;99.90
18252;DHT22;26917;52.328;20.878;2022-10-03T17:46:33;9.50;99.90
18252;DHT22;26917;52.328;20.878;2022-10-03T17:49:18;9.50;99.90
18252;DHT22;26917;52.328;20.878;2022-10-03T17:51:52;9.60;99.90
18252;DHT22;26917;52.328;20.878;2022-10-03T17:54:25;9.60;99.90
18252;DHT22;26917;52.328;20.878;2022-10-03T17:57:00;9.60;99.90
18252;DHT22;26917;52.328;20.878;2022-10-03T17:59:36;9.50;99.90
18252;DHT22;26917;52.328;20.878;2022-10-03T18:02:18;9.50;99.90
18252;DHT22;26917;52.328;20.878;2022-10-03T18:04:53;9.50;99.90
18252;DHT22;26917;52.328;20.878;2022-10-03T18:07:27;9.50;99.90
18252;DHT22;26917;52.328;20.878;2022-10-03T18:09:56;9.50;99.90
18252;DHT22;26917;52.328;20.878;2022-10-03T18:12:29;9.50;99.90
18252;DHT22;26917;52.328;20.878;2022-10-03T18:18:31;9.60;99.90
18252;DHT22;26917;52.328;20.878;2022-10-03T18:21:06;9.60;99.90
18252;DHT22;26917;52.328;20.878;2022-10-03T18:23:46;9.60;99.90
18252;DHT22;26917;52.328;20.878;2022-10-03T18:26:25;9.50;99.90
18252;DHT22;26917;52.328;20.878;2022-10-03T18:29:03;9.50;99.90
18252;DHT22;26917;52.328;20.878;2022-10-03T18:31:41;9.50;99.90
18252;DHT22;26917;52.328;20.878;2022-10-03T18:34:18;9.50;99.90
18252;DHT22;26917;52.328;20.878;2022-10-03T18:36:48;9.50;99.90
18252;DHT22;26917;52.328;20.878;2022-10-03T18:39:22;9.50;99.90
18252;DHT22;26917;52.328;20.878;2022-10-03T18:41:55;9.50;99.90
18252;DHT22;26917;52.328;20.878;2022-10-03T18:44:28;9.40;99.90
18252;DHT22;26917;52.328;20.878;2022-10-03T18:47:04;9.40;99.90
18252;DHT22;26917;52.328;20.878;2022-10-03T18:49:37;9.40;99.90
18252;DHT22;26917;52.328;20.878;2022-10-03T18:52:15;9.40;99.90
18252;DHT22;26917;52.328;20.878;2022-10-03T18:54:54;9.40;99.90
18252;DHT22;26917;52.328;20.878;2022-10-03T18:57:33;9.40;99.90
18252;DHT22;26917;52.328;20.878;2022-10-03T19:00:10;9.50;99.90
18252;DHT22;26917;52.328;20.878;2022-10-03T19:02:49;9.40;99.90
18252;DHT22;26917;52.328;20.878;2022-10-03T19:05:24;9.40;99.90
18252;DHT22;26917;52.328;20.878;2022-10-03T19:08:03;9.30;99.90
18252;DHT22;26917;52.328;20.878;2022-10-03T19:10:37;9.40;99.90
18252;DHT22;26917;52.328;20.878;2022-10-03T19:13:26;9.30;99.90
18252;DHT22;26917;52.328;20.878;2022-10-03T19:16:12;9.40;99.90
18252;DHT22;26917;52.328;20.878;2022-10-03T19:18:42;9.30;99.90
18252;DHT22;26917;52.328;20.878;2022-10-03T19:21:17;9.30;99.90
18252;DHT22;26917;52.328;20.878;2022-10-03T19:23:50;9.40;99.90
18252;DHT22;26917;52.328;20.878;2022-10-03T19:26:23;9.30;99.90
18252;DHT22;26917;52.328;20.878;2022-10-03T19:29:02;9.20;99.90
18252;DHT22;26917;52.328;20.878;2022-10-03T19:31:36;9.30;99.90
18252;DHT22;26917;52.328;20.878;2022-10-03T19:34:15;9.30;99.90
18252;DHT22;26917;52.328;20.878;2022-10-03T19:36:49;9.30;99.90
18252;DHT22;26917;52.328;20.878;2022-10-03T19:39:20;9.40;99.90
18252;DHT22;26917;52.328;20.878;2022-10-03T19:41:52;9.60;99.90
18252;DHT22;26917;52.328;20.878;2022-10-03T19:44:23;9.50;99.90
18252;DHT22;26917;52.328;20.878;2022-10-03T19:47:01;9.60;99.90
18252;DHT22;26917;52.328;20.878;2022-10-03T19:49:49;9.60;99.90
18252;DHT22;26917;52.328;20.878;2022-10-03T19:52:28;9.60;99.90